Time;durP1;ratioP1;P1;durP2;ratioP2;P2;SDS_P1;SDS_P2;PMS_P1;PMS_P2;Temp;Humidity;BMP_temperature;BMP_pressure;BME280_temperature;BME280_humidity;BME280_pressure;Samples;Min_cycle;Max_cycle;Signal;HPM_P1;HPM_P2
2023/01/28 00:02:14;;;;;;;23.75;19.48;;;;;;;;;;5030955;28;20061;-65
2023/01/28 00:04:40;;;;;;;20.20;16.77;;;;;;;;;;5037803;28;20087;-65
2023/01/28 00:07:06;;;;;;;26.75;19.67;;;;;;;;;;5050476;28;20405;-65
2023/01/28 00:09:33;;;;;;;26.98;20.27;;;;;;;;;;5050444;28;20481;-65
2023/01/28 00:11:59;;;;;;;31.17;21.63;;;;;;;;;;5051827;28;20049;-65
2023/01/28 00:14:25;;;;;;;29.75;23.25;;;;;;;;;;5051504;28;20485;-65
2023/01/28 00:16:52;;;;;;;28.65;22.40;;;;;;;;;;5050712;28;20053;-65
2023/01/28 00:19:18;;;;;;;34.10;25.50;;;;;;;;;;5051771;28;20079;-66
2023/01/28 00:21:45;;;;;;;31.70;23.00;;;;;;;;;;5052716;28;20049;-65
2023/01/28 00:24:11;;;;;;;22.63;17.70;;;;;;;;;;5052724;28;20579;-65
2023/01/28 00:26:37;;;;;;;18.75;16.35;;;;;;;;;;5052857;28;20083;-65
2023/01/28 00:29:04;;;;;;;22.50;16.70;;;;;;;;;;5052851;28;20047;-65
2023/01/28 00:31:30;;;;;;;20.95;17.30;;;;;;;;;;5051563;28;20048;-65
2023/01/28 00:33:57;;;;;;;25.98;19.33;;;;;;;;;;5052509;28;20099;-65
2023/01/28 00:36:24;;;;;;;27.63;20.45;;;;;;;;;;5052718;28;20467;-65
2023/01/28 00:38:55;;;;;;;25.17;17.98;;;;;;;;;;5052734;28;20057;-65
2023/01/28 00:41:22;;;;;;;24.55;18.48;;;;;;;;;;5052353;28;20048;-65
2023/01/28 00:43:49;;;;;;;29.75;19.88;;;;;;;;;;5051418;28;20051;-65
2023/01/28 00:46:15;;;;;;;29.60;20.40;;;;;;;;;;5052109;28;20413;-66
2023/01/28 00:48:42;;;;;;;31.45;23.05;;;;;;;;;;5052160;28;20041;-65
2023/01/28 00:51:10;;;;;;;27.83;18.15;;;;;;;;;;5050963;28;20048;-66
2023/01/28 00:53:37;;;;;;;;;;;;;;;;;;5052631;28;20045;-66
2023/01/28 00:56:04;;;;;;;21.95;16.25;;;;;;;;;;5052237;28;19963;-65
2023/01/28 00:58:31;;;;;;;23.60;17.30;;;;;;;;;;5052152;28;20135;-66
2023/01/28 01:01:05;;;;;;;21.92;16.45;;;;;;;;;;5051720;28;20294;-66
2023/01/28 01:03:31;;;;;;;24.02;17.50;;;;;;;;;;5050982;28;20040;-66
2023/01/28 01:05:58;;;;;;;21.52;16.00;;;;;;;;;;5051800;28;20045;-65
2023/01/28 01:08:33;;;;;;;25.63;18.83;;;;;;;;;;5052140;28;20045;-65
2023/01/28 01:11:03;;;;;;;26.80;19.10;;;;;;;;;;5052079;28;20041;-65
2023/01/28 01:13:31;;;;;;;28.48;19.05;;;;;;;;;;5052076;28;20051;-65
2023/01/28 01:16:16;;;;;;;27.02;18.27;;;;;;;;;;5050912;28;20048;-66
2023/01/28 01:18:43;;;;;;;25.83;18.10;;;;;;;;;;5050729;28;20044;-65
2023/01/28 01:21:11;;;;;;;23.02;16.75;;;;;;;;;;5051896;28;20049;-65
2023/01/28 01:23:38;;;;;;;25.08;18.48;;;;;;;;;;5051917;28;20065;-65
2023/01/28 01:26:05;;;;;;;30.95;22.17;;;;;;;;;;5051887;28;20063;-66
2023/01/28 01:28:31;;;;;;;29.73;20.20;;;;;;;;;;5051700;28;20128;-66
2023/01/28 01:31:02;;;;;;;20.48;16.60;;;;;;;;;;5051516;28;20049;-66
2023/01/28 01:33:29;;;;;;;21.65;15.93;;;;;;;;;;5051839;28;20500;-65
2023/01/28 01:35:56;;;;;;;26.85;19.27;;;;;;;;;;5051727;28;20045;-65
2023/01/28 01:38:23;;;;;;;23.70;17.48;;;;;;;;;;5051631;28;20049;-65
2023/01/28 01:40:49;;;;;;;24.77;16.02;;;;;;;;;;5051507;28;20453;-65
2023/01/28 01:43:19;;;;;;;22.33;15.25;;;;;;;;;;5051432;28;20053;-65
2023/01/28 01:45:48;;;;;;;23.25;16.45;;;;;;;;;;5051231;28;20057;-65
2023/01/28 01:48:20;;;;;;;23.33;16.50;;;;;;;;;;5051526;28;20085;-65
2023/01/28 01:51:02;;;;;;;23.02;16.35;;;;;;;;;;5051904;28;20052;-65
2023/01/28 01:53:29;;;;;;;20.10;15.25;;;;;;;;;;5051472;28;20055;-65
2023/01/28 01:55:57;;;;;;;20.57;15.33;;;;;;;;;;5051550;28;20136;-65
2023/01/28 01:58:27;;;;;;;21.02;15.18;;;;;;;;;;5049975;28;20059;-65
2023/01/28 02:00:54;;;;;;;19.33;14.52;;;;;;;;;;5044962;28;20128;-65
2023/01/28 02:03:24;;;;;;;19.98;15.27;;;;;;;;;;5045617;28;20132;-65
2023/01/28 02:05:51;;;;;;;18.17;14.38;;;;;;;;;;5050941;28;20045;-65
2023/01/28 02:08:20;;;;;;;18.10;14.70;;;;;;;;;;5055389;28;20048;-65
2023/01/28 02:10:51;;;;;;;18.25;14.48;;;;;;;;;;5055275;28;20132;-65
2023/01/28 02:13:19;;;;;;;20.05;15.68;;;;;;;;;;5055145;28;20129;-65
2023/01/28 02:15:46;;;;;;;;;;;;;;;;;;5055673;28;20052;-65
2023/01/28 02:18:12;;;;;;;21.55;15.13;;;;;;;;;;5055125;28;20015;-65
2023/01/28 02:20:55;;;;;;;19.88;14.18;;;;;;;;;;5055069;28;20057;-66
2023/01/28 02:23:21;;;;;;;19.30;13.77;;;;;;;;;;5055225;28;20057;-65
2023/01/28 02:26:06;;;;;;;20.77;15.70;;;;;;;;;;5054935;28;20080;-65
2023/01/28 02:28:39;;;;;;;18.05;14.82;;;;;;;;;;5055128;28;20374;-65
2023/01/28 02:31:13;;;;;;;20.73;15.30;;;;;;;;;;5055158;28;20041;-65
2023/01/28 02:33:43;;;;;;;20.60;15.52;;;;;;;;;;5054803;28;20531;-66
2023/01/28 02:36:21;;;;;;;20.27;15.20;;;;;;;;;;5054745;28;20552;-65
2023/01/28 02:38:49;;;;;;;22.75;15.50;;;;;;;;;;5055110;28;20090;-65
2023/01/28 02:41:22;;;;;;;25.48;16.90;;;;;;;;;;5054850;28;20135;-66
2023/01/28 02:43:49;;;;;;;23.40;15.95;;;;;;;;;;5054631;28;20063;-66
2023/01/28 02:49:04;;;;;;;20.43;14.27;;;;;;;;;;5054513;28;20584;-65
2023/01/28 02:51:30;;;;;;;17.73;14.27;;;;;;;;;;5054818;28;20325;-65
2023/01/28 02:53:59;;;;;;;17.30;12.90;;;;;;;;;;5054523;28;20464;-65
2023/01/28 02:56:37;;;;;;;17.77;13.27;;;;;;;;;;5054275;28;20127;-65
2023/01/28 02:59:29;;;;;;;;;;;;;;;;;;5054828;28;20051;-65
2023/01/28 03:01:57;;;;;;;14.55;11.85;;;;;;;;;;5053772;28;19927;-65
2023/01/28 03:04:28;;;;;;;18.55;12.93;;;;;;;;;;5054232;28;20084;-65
2023/01/28 03:06:57;;;;;;;15.95;12.38;;;;;;;;;;5054395;28;20044;-65
2023/01/28 03:09:25;;;;;;;18.92;12.75;;;;;;;;;;5054425;28;20048;-65
2023/01/28 03:37:59;;;;;;;15.52;12.40;;;;;;;;;;5053679;28;20394;-65
2023/01/28 03:40:26;;;;;;;16.20;13.90;;;;;;;;;;5052626;28;20052;-65
2023/01/28 03:42:53;;;;;;;15.45;12.32;;;;;;;;;;5053865;28;20404;-65
2023/01/28 03:45:20;;;;;;;16.42;12.45;;;;;;;;;;5053459;28;20060;-65
2023/01/28 03:47:46;;;;;;;18.50;13.27;;;;;;;;;;5053702;28;20132;-66
2023/01/28 03:50:13;;;;;;;15.45;12.35;;;;;;;;;;5053371;28;20577;-65
2023/01/28 03:52:39;;;;;;;16.75;12.82;;;;;;;;;;5053678;28;20577;-65
2023/01/28 03:55:12;;;;;;;19.13;13.20;;;;;;;;;;5052291;28;20059;-65
2023/01/28 03:57:39;;;;;;;20.65;13.98;;;;;;;;;;5053352;28;20064;-66
2023/01/28 04:00:06;;;;;;;16.85;14.00;;;;;;;;;;5053198;28;20055;-65
2023/01/28 04:02:34;;;;;;;15.52;13.43;;;;;;;;;;5053181;28;20049;-65
2023/01/28 04:05:05;;;;;;;;;;;;;;;;;;5053537;28;20053;-65
2023/01/28 04:07:32;;;;;;;14.98;11.55;;;;;;;;;;5053193;28;19929;-65
2023/01/28 04:09:59;;;;;;;18.70;14.00;;;;;;;;;;5053260;28;20052;-65
2023/01/28 04:12:25;;;;;;;15.57;12.85;;;;;;;;;;5053077;28;20459;-65
2023/01/28 04:14:51;;;;;;;18.27;13.63;;;;;;;;;;5052937;28;20382;-65
2023/01/28 04:17:18;;;;;;;16.85;13.90;;;;;;;;;;5053130;28;20432;-65
2023/01/28 04:19:44;;;;;;;19.23;13.48;;;;;;;;;;5052834;28;20459;-65
2023/01/28 04:22:11;;;;;;;16.15;12.88;;;;;;;;;;5053040;28;20059;-65
2023/01/28 04:24:37;;;;;;;15.63;13.15;;;;;;;;;;5052684;28;20045;-65
2023/01/28 04:27:03;;;;;;;14.38;12.35;;;;;;;;;;5052667;28;20077;-65
2023/01/28 04:29:30;;;;;;;17.60;12.65;;;;;;;;;;5052083;28;20041;-66
2023/01/28 04:31:56;;;;;;;18.33;13.70;;;;;;;;;;5052578;28;20087;-65
2023/01/28 04:34:23;;;;;;;15.95;13.52;;;;;;;;;;5052800;28;20389;-65
2023/01/28 04:36:49;;;;;;;17.20;13.00;;;;;;;;;;5052749;28;20409;-66
2023/01/28 04:39:16;;;;;;;16.83;13.43;;;;;;;;;;5052471;28;20573;-66
2023/01/28 04:41:42;;;;;;;17.92;12.95;;;;;;;;;;5052434;28;20051;-66
2023/01/28 04:44:08;;;;;;;17.95;13.85;;;;;;;;;;5052183;28;20523;-66
2023/01/28 04:46:35;;;;;;;17.00;14.02;;;;;;;;;;5052296;28;20443;-66
2023/01/28 04:49:02;;;;;;;19.63;12.60;;;;;;;;;;5052452;28;20049;-65
2023/01/28 04:51:29;;;;;;;20.15;13.27;;;;;;;;;;5052384;28;20583;-65
2023/01/28 04:53:55;;;;;;;19.27;14.10;;;;;;;;;;5052481;28;20049;-65
2023/01/28 04:56:22;;;;;;;16.65;13.68;;;;;;;;;;5052299;28;20045;-65
2023/01/28 04:58:48;;;;;;;17.35;13.63;;;;;;;;;;5052402;28;20128;-65
2023/01/28 05:01:14;;;;;;;16.63;14.27;;;;;;;;;;5052349;28;20056;-65
2023/01/28 05:03:41;;;;;;;14.57;12.35;;;;;;;;;;5051972;28;20075;-65
2023/01/28 05:06:07;;;;;;;17.85;13.57;;;;;;;;;;5052203;28;20131;-65
2023/01/28 05:08:34;;;;;;;16.13;12.90;;;;;;;;;;5051831;28;20048;-65
2023/01/28 05:11:00;;;;;;;19.45;12.77;;;;;;;;;;5051820;28;20049;-65
2023/01/28 05:13:26;;;;;;;17.48;13.38;;;;;;;;;;5052187;28;20459;-65
2023/01/28 05:15:53;;;;;;;16.48;13.05;;;;;;;;;;5051951;28;20051;-65
2023/01/28 05:18:19;;;;;;;18.45;13.77;;;;;;;;;;5052040;28;20175;-65
2023/01/28 05:20:47;;;;;;;18.88;13.93;;;;;;;;;;5051663;28;20051;-65
2023/01/28 05:23:13;;;;;;;19.63;14.07;;;;;;;;;;5051877;28;20049;-65
2023/01/28 05:25:39;;;;;;;18.63;14.02;;;;;;;;;;5051695;28;20061;-65
2023/01/28 05:28:06;;;;;;;18.90;14.05;;;;;;;;;;5051546;28;20045;-65
2023/01/28 05:30:32;;;;;;;24.95;14.98;;;;;;;;;;5051922;28;20106;-65
2023/01/28 05:32:58;;;;;;;19.52;14.48;;;;;;;;;;5051552;28;20044;-65
2023/01/28 05:35:25;;;;;;;19.98;13.80;;;;;;;;;;5051534;28;20055;-65
2023/01/28 05:37:51;;;;;;;18.35;13.32;;;;;;;;;;5051765;28;20136;-65
2023/01/28 05:40:18;;;;;;;24.67;14.02;;;;;;;;;;5051350;28;20055;-65
2023/01/28 05:42:44;;;;;;;20.17;14.27;;;;;;;;;;5051472;28;20049;-65
2023/01/28 05:45:11;;;;;;;18.73;13.60;;;;;;;;;;5051470;28;20095;-65
2023/01/28 05:47:38;;;;;;;18.35;13.20;;;;;;;;;;5051675;28;20049;-65
2023/01/28 05:50:05;;;;;;;16.23;12.07;;;;;;;;;;5051489;28;20048;-65
2023/01/28 05:52:31;;;;;;;15.70;12.07;;;;;;;;;;5051751;28;20041;-65
2023/01/28 05:54:58;;;;;;;14.80;12.82;;;;;;;;;;5051645;28;20055;-65
2023/01/28 05:57:24;;;;;;;16.67;13.40;;;;;;;;;;5051393;28;20132;-65
2023/01/28 05:59:51;;;;;;;18.92;14.60;;;;;;;;;;5051495;28;20124;-65
2023/01/28 06:02:17;;;;;;;17.85;14.32;;;;;;;;;;5051650;28;20051;-65
2023/01/28 06:04:43;;;;;;;16.60;13.65;;;;;;;;;;5051302;28;20524;-65
2023/01/28 06:07:12;;;;;;;18.08;14.23;;;;;;;;;;5051063;28;20053;-65
2023/01/28 06:09:38;;;;;;;17.40;13.43;;;;;;;;;;5051267;28;20076;-65
2023/01/28 06:12:05;;;;;;;17.63;12.65;;;;;;;;;;5051137;28;20392;-65
2023/01/28 06:14:31;;;;;;;17.70;13.63;;;;;;;;;;5051195;28;20048;-65
2023/01/28 06:16:57;;;;;;;16.25;12.77;;;;;;;;;;5051189;28;20045;-65
2023/01/28 06:19:24;;;;;;;18.52;13.45;;;;;;;;;;5051278;28;20471;-65
2023/01/28 06:21:50;;;;;;;18.85;14.43;;;;;;;;;;5051141;28;20508;-65
2023/01/28 06:24:16;;;;;;;18.92;14.77;;;;;;;;;;5050988;28;20059;-65
2023/01/28 06:26:43;;;;;;;17.63;14.73;;;;;;;;;;5051079;28;20053;-65
2023/01/28 06:29:10;;;;;;;18.38;14.00;;;;;;;;;;5051181;28;20048;-66
2023/01/28 06:31:36;;;;;;;18.60;14.82;;;;;;;;;;5050106;28;20071;-65
2023/01/28 06:34:03;;;;;;;18.85;14.77;;;;;;;;;;5051273;28;20048;-65
2023/01/28 06:36:29;;;;;;;20.95;15.15;;;;;;;;;;5050914;28;20515;-65
2023/01/28 06:38:56;;;;;;;20.98;15.63;;;;;;;;;;5050989;28;20051;-65
2023/01/28 06:41:22;;;;;;;21.05;14.88;;;;;;;;;;5051170;28;20056;-65
2023/01/28 06:43:49;;;;;;;20.10;16.45;;;;;;;;;;5049951;28;20059;-65
2023/01/28 06:46:15;;;;;;;22.55;14.85;;;;;;;;;;5050738;28;20111;-65
2023/01/28 06:48:42;;;;;;;19.65;15.30;;;;;;;;;;5050934;28;20076;-65
2023/01/28 06:51:08;;;;;;;18.90;14.75;;;;;;;;;;5050896;28;20055;-65
2023/01/28 06:53:34;;;;;;;19.25;14.98;;;;;;;;;;5052098;28;20572;-65
2023/01/28 06:56:01;;;;;;;19.75;14.65;;;;;;;;;;5054437;28;20056;-65
2023/01/28 06:58:27;;;;;;;21.33;15.88;;;;;;;;;;5054552;28;20424;-65
2023/01/28 07:00:54;;;;;;;20.58;15.77;;;;;;;;;;5054659;28;20053;-65
2023/01/28 07:03:20;;;;;;;18.58;14.88;;;;;;;;;;5054566;28;20140;-65
2023/01/28 07:05:47;;;;;;;17.92;14.90;;;;;;;;;;5054280;28;20048;-65
2023/01/28 07:08:13;;;;;;;19.58;14.75;;;;;;;;;;5054187;28;20045;-67
2023/01/28 07:10:39;;;;;;;21.65;15.68;;;;;;;;;;5054135;28;20080;-65
2023/01/28 07:13:06;;;;;;;20.80;17.20;;;;;;;;;;5054322;28;20128;-66
2023/01/28 07:15:32;;;;;;;22.42;17.30;;;;;;;;;;5054124;28;20049;-66
2023/01/28 07:17:59;;;;;;;20.17;16.70;;;;;;;;;;5053969;28;20049;-66
2023/01/28 07:20:25;;;;;;;23.52;16.45;;;;;;;;;;5054024;28;20500;-66
2023/01/28 07:22:51;;;;;;;18.48;15.45;;;;;;;;;;5053801;28;20144;-66
2023/01/28 07:25:18;;;;;;;19.40;15.20;;;;;;;;;;5054491;28;20048;-65
2023/01/28 07:27:48;;;;;;;17.60;14.05;;;;;;;;;;5052663;28;20051;-65
2023/01/28 07:30:15;;;;;;;18.77;15.98;;;;;;;;;;5053822;28;20059;-66
2023/01/28 07:32:43;;;;;;;21.40;15.30;;;;;;;;;;5053743;28;20041;-65
2023/01/28 07:35:09;;;;;;;19.83;15.77;;;;;;;;;;5054044;28;20156;-66
2023/01/28 07:37:35;;;;;;;25.00;20.35;;;;;;;;;;5053864;28;20527;-67
2023/01/28 07:40:02;;;;;;;27.70;21.35;;;;;;;;;;5053841;28;20055;-65
2023/01/28 07:42:28;;;;;;;27.88;20.70;;;;;;;;;;5053662;28;20128;-65
2023/01/28 07:44:55;;;;;;;27.00;21.48;;;;;;;;;;5053331;28;20507;-65
2023/01/28 07:47:22;;;;;;;30.08;23.70;;;;;;;;;;5052380;28;20407;-65
2023/01/28 07:49:48;;;;;;;33.53;26.67;;;;;;;;;;5053309;28;20103;-66
2023/01/28 07:52:14;;;;;;;22.48;18.00;;;;;;;;;;5053724;28;20047;-65
2023/01/28 07:54:41;;;;;;;24.33;19.55;;;;;;;;;;5043185;28;20065;-66
2023/01/28 07:57:10;;;;;;;23.50;17.67;;;;;;;;;;5050956;28;20040;-66
2023/01/28 07:59:37;;;;;;;23.27;17.83;;;;;;;;;;5053020;28;20049;-66
2023/01/28 08:02:03;;;;;;;21.65;17.55;;;;;;;;;;5052690;28;20053;-65
2023/01/28 08:04:29;;;;;;;21.45;17.38;;;;;;;;;;5051979;28;20049;-66
2023/01/28 08:06:56;;;;;;;21.48;17.63;;;;;;;;;;5032550;28;20077;-66
2023/01/28 08:09:22;;;;;;;25.38;18.05;;;;;;;;;;5037399;28;20061;-66
2023/01/28 08:11:49;;;;;;;23.20;16.90;;;;;;;;;;5052130;28;20139;-64
2023/01/28 08:14:15;;;;;;;25.13;17.52;;;;;;;;;;5052023;28;20524;-64
2023/01/28 08:16:42;;;;;;;23.50;16.77;;;;;;;;;;5052347;28;20060;-65
2023/01/28 08:19:09;;;;;;;25.23;17.35;;;;;;;;;;5052517;28;20052;-65
2023/01/28 08:21:35;;;;;;;18.75;15.07;;;;;;;;;;5052370;28;20044;-65
2023/01/28 08:24:01;;;;;;;24.25;16.67;;;;;;;;;;5043788;28;20497;-64
2023/01/28 08:26:28;;;;;;;23.85;16.60;;;;;;;;;;5031900;28;20504;-64
2023/01/28 08:28:54;;;;;;;23.63;16.02;;;;;;;;;;5031684;28;21016;-64
2023/01/28 08:31:20;;;;;;;22.88;16.63;;;;;;;;;;5031888;28;20084;-64
2023/01/28 08:33:47;;;;;;;22.88;16.50;;;;;;;;;;5036561;28;20045;-64
2023/01/28 08:36:14;;;;;;;21.00;16.02;;;;;;;;;;5037824;28;20385;-64
2023/01/28 08:38:42;;;;;;;25.25;16.95;;;;;;;;;;5031687;28;20088;-64
2023/01/28 08:41:08;;;;;;;22.65;16.75;;;;;;;;;;5031938;28;20505;-65
2023/01/28 08:43:34;;;;;;;22.30;17.17;;;;;;;;;;5031505;28;20060;-65
2023/01/28 08:46:03;;;;;;;23.25;16.15;;;;;;;;;;5031330;28;20065;-64
2023/01/28 08:48:30;;;;;;;25.38;16.88;;;;;;;;;;5035855;28;20090;-64
2023/01/28 08:50:57;;;;;;;23.98;16.10;;;;;;;;;;5031373;28;20045;-65
2023/01/28 08:53:24;;;;;;;22.30;16.02;;;;;;;;;;5031667;28;20045;-65
2023/01/28 08:55:50;;;;;;;18.42;14.55;;;;;;;;;;5031873;28;20046;-64
2023/01/28 08:58:17;;;;;;;19.45;14.23;;;;;;;;;;5045176;28;20053;-64
2023/01/28 09:00:44;;;;;;;20.25;15.75;;;;;;;;;;5030021;28;20057;-65
2023/01/28 09:03:10;;;;;;;21.95;16.42;;;;;;;;;;5037786;28;20048;-66
2023/01/28 09:05:37;;;;;;;21.77;16.80;;;;;;;;;;5050350;28;20084;-65
2023/01/28 09:08:04;;;;;;;22.08;16.67;;;;;;;;;;5030976;28;20501;-64
2023/01/28 09:10:31;;;;;;;23.38;16.83;;;;;;;;;;5048452;28;20049;-64
2023/01/28 09:12:57;;;;;;;22.33;17.17;;;;;;;;;;5031026;28;20473;-64
2023/01/28 09:15:23;;;;;;;23.25;16.13;;;;;;;;;;5030572;28;20049;-65
2023/01/28 09:17:56;;;;;;;20.95;16.45;;;;;;;;;;5031274;28;20120;-68
2023/01/28 09:20:22;;;;;;;21.38;16.52;;;;;;;;;;5030902;28;20085;-68
2023/01/28 09:22:48;;;;;;;19.88;15.52;;;;;;;;;;5030906;28;20045;-68
2023/01/28 09:25:15;;;;;;;21.75;15.18;;;;;;;;;;5030583;28;20063;-68
2023/01/28 09:27:41;;;;;;;20.42;15.10;;;;;;;;;;5029716;28;20138;-68
2023/01/28 09:30:09;;;;;;;15.02;12.75;;;;;;;;;;5030780;28;20086;-69
2023/01/28 09:32:35;;;;;;;13.85;11.02;;;;;;;;;;5031160;28;20080;-69
2023/01/28 09:35:02;;;;;;;17.90;11.77;;;;;;;;;;5043655;28;20066;-67
2023/01/28 09:37:28;;;;;;;15.60;10.73;;;;;;;;;;5042779;28;20063;-69
2023/01/28 09:39:55;;;;;;;100.97;62.67;;;;;;;;;;5031111;28;20396;-67
2023/01/28 09:42:42;;;;;;;50.67;34.05;;;;;;;;;;5035644;28;20055;-67
2023/01/28 09:45:17;;;;;;;23.80;17.42;;;;;;;;;;5050949;28;20052;-66
2023/01/28 09:47:46;;;;;;;23.75;17.58;;;;;;;;;;5051130;28;20055;-66
2023/01/28 09:50:15;;;;;;;21.15;16.42;;;;;;;;;;5049787;28;20048;-66
2023/01/28 09:52:41;;;;;;;19.27;15.05;;;;;;;;;;5051171;28;20056;-67
2023/01/28 09:55:14;;;;;;;21.08;16.02;;;;;;;;;;5051253;28;20052;-66
2023/01/28 09:57:43;;;;;;;22.00;17.20;;;;;;;;;;5049058;28;20243;-66
2023/01/28 10:00:23;;;;;;;22.42;16.92;;;;;;;;;;5051011;28;20144;-66
2023/01/28 10:03:28;;;;;;;24.55;17.70;;;;;;;;;;5050847;28;20131;-67
2023/01/28 10:06:04;;;;;;;24.90;17.15;;;;;;;;;;5047924;28;20056;-67
2023/01/28 10:08:30;;;;;;;21.67;16.75;;;;;;;;;;5047792;28;20151;-68
2023/01/28 10:11:02;;;;;;;19.40;15.70;;;;;;;;;;5038422;28;20489;-68
2023/01/28 10:13:44;;;;;;;21.05;16.52;;;;;;;;;;5029081;28;20049;-68
2023/01/28 10:16:11;;;;;;;25.50;19.75;;;;;;;;;;5049828;28;20059;-67
2023/01/28 10:18:40;;;;;;;24.55;19.88;;;;;;;;;;5049333;28;20492;-70
2023/01/28 10:21:13;;;;;;;28.50;20.08;;;;;;;;;;5031865;28;20045;-67
2023/01/28 10:23:46;;;;;;;28.38;20.63;;;;;;;;;;5047314;28;20847;-66
2023/01/28 10:26:20;;;;;;;23.95;18.23;;;;;;;;;;5051038;28;20103;-66
2023/01/28 10:28:51;;;;;;;18.10;14.23;;;;;;;;;;5053869;28;20071;-68
2023/01/28 10:31:18;;;;;;;22.30;15.90;;;;;;;;;;5049064;28;20493;-66
2023/01/28 10:33:44;;;;;;;22.27;17.98;;;;;;;;;;5034263;28;20049;-67
2023/01/28 10:36:10;;;;;;;21.92;18.50;;;;;;;;;;5042591;28;20475;-66
2023/01/28 10:38:37;;;;;;;26.25;16.48;;;;;;;;;;5054168;28;20049;-67
2023/01/28 10:41:04;;;;;;;21.10;15.77;;;;;;;;;;5040803;28;20428;-67
2023/01/28 10:43:35;;;;;;;23.25;15.63;;;;;;;;;;5034216;28;20045;-71
2023/01/28 10:46:02;;;;;;;22.10;19.00;;;;;;;;;;5032254;28;20092;-69
2023/01/28 10:48:29;;;;;;;21.63;17.20;;;;;;;;;;5032551;28;20049;-69
2023/01/28 10:50:58;;;;;;;25.47;22.60;;;;;;;;;;5033658;28;20088;-68
2023/01/28 10:53:41;;;;;;;15.30;11.35;;;;;;;;;;5042323;28;20131;-68
2023/01/28 10:56:13;;;;;;;12.60;9.73;;;;;;;;;;5054177;28;20041;-67
2023/01/28 10:59:05;;;;;;;14.05;9.80;;;;;;;;;;5040826;28;20465;-67
2023/01/28 11:01:46;;;;;;;11.35;9.48;;;;;;;;;;5033277;28;20111;-66
2023/01/28 11:04:17;;;;;;;10.32;8.02;;;;;;;;;;5050985;28;20045;-67
2023/01/28 11:06:51;;;;;;;22.63;17.25;;;;;;;;;;5050722;28;20064;-67
2023/01/28 11:09:21;;;;;;;36.58;26.40;;;;;;;;;;5042305;28;20057;-67
2023/01/28 11:11:48;;;;;;;21.02;16.25;;;;;;;;;;5053943;28;20045;-67
2023/01/28 11:14:21;;;;;;;16.55;13.80;;;;;;;;;;5053603;28;20127;-67
2023/01/28 11:16:48;;;;;;;16.05;10.80;;;;;;;;;;5053535;28;20081;-66
2023/01/28 11:19:17;;;;;;;11.30;9.73;;;;;;;;;;5053429;28;20056;-67
2023/01/28 11:21:49;;;;;;;12.05;8.02;;;;;;;;;;5052535;28;20110;-67
2023/01/28 11:24:19;;;;;;;9.88;8.27;;;;;;;;;;5042541;28;20128;-66
2023/01/28 11:26:51;;;;;;;10.82;9.38;;;;;;;;;;5033414;28;20084;-65
2023/01/28 11:29:25;;;;;;;10.50;9.20;;;;;;;;;;5049410;28;20165;-68
2023/01/28 11:31:51;;;;;;;10.98;8.63;;;;;;;;;;5053564;28;20053;-67
2023/01/28 11:34:18;;;;;;;13.68;11.27;;;;;;;;;;5053316;28;20060;-67
2023/01/28 11:36:52;;;;;;;8.95;7.80;;;;;;;;;;5053484;28;20132;-67
2023/01/28 11:39:24;;;;;;;10.15;6.88;;;;;;;;;;5053060;28;20408;-66
2023/01/28 11:41:52;;;;;;;8.95;6.82;;;;;;;;;;5053153;28;20056;-67
2023/01/28 11:44:20;;;;;;;7.30;6.60;;;;;;;;;;5052885;28;20148;-67
2023/01/28 11:47:06;;;;;;;12.00;10.30;;;;;;;;;;5033684;28;20053;-67
2023/01/28 11:49:32;;;;;;;31.33;21.40;;;;;;;;;;5032612;28;20065;-69
2023/01/28 11:52:11;;;;;;;39.08;28.67;;;;;;;;;;5032877;28;20120;-69
2023/01/28 11:54:43;;;;;;;31.00;23.13;;;;;;;;;;5047911;28;20675;-67
2023/01/28 11:57:30;;;;;;;31.83;25.13;;;;;;;;;;5040677;28;20080;-67
2023/01/28 12:00:16;;;;;;;17.85;15.95;;;;;;;;;;5036976;28;20507;-68
2023/01/28 12:02:52;;;;;;;22.92;19.15;;;;;;;;;;5049905;28;20049;-67
2023/01/28 12:05:31;;;;;;;14.27;12.43;;;;;;;;;;5052942;28;20048;-67
2023/01/28 12:08:00;;;;;;;15.38;12.00;;;;;;;;;;5052501;28;20045;-67
2023/01/28 12:10:39;;;;;;;15.00;10.85;;;;;;;;;;5042761;28;20056;-67
2023/01/28 12:13:23;;;;;;;11.80;10.48;;;;;;;;;;5049797;28;20048;-67
2023/01/28 12:15:56;;;;;;;7.70;6.75;;;;;;;;;;5050406;28;20049;-67
2023/01/28 12:18:29;;;;;;;10.23;9.23;;;;;;;;;;5052646;28;20048;-68
2023/01/28 12:21:05;;;;;;;11.75;10.63;;;;;;;;;;5052707;28;20165;-68
2023/01/28 12:23:37;;;;;;;14.70;9.93;;;;;;;;;;5052478;28;20041;-67
2023/01/28 12:26:07;;;;;;;12.80;9.55;;;;;;;;;;5052167;28;20056;-67
2023/01/28 12:28:43;;;;;;;22.02;17.90;;;;;;;;;;5052456;28;20048;-67
2023/01/28 12:31:25;;;;;;;8.20;5.90;;;;;;;;;;5052311;28;20056;-69
2023/01/28 12:34:18;;;;;;;20.45;17.50;;;;;;;;;;5047516;28;20065;-68
2023/01/28 12:36:55;;;;;;;23.10;18.20;;;;;;;;;;5049247;28;20385;-67
2023/01/28 12:39:40;;;;;;;14.05;12.65;;;;;;;;;;5051445;28;20044;-68
2023/01/28 12:42:18;;;;;;;9.60;8.27;;;;;;;;;;5051690;28;20135;-66
2023/01/28 12:44:58;;;;;;;10.80;8.10;;;;;;;;;;5051174;28;20194;-67
2023/01/28 12:47:28;;;;;;;13.15;10.68;;;;;;;;;;5051801;28;20084;-68
2023/01/28 12:50:12;;;;;;;10.90;7.22;;;;;;;;;;5046932;28;20055;-67
2023/01/28 12:52:43;;;;;;;14.50;11.90;;;;;;;;;;5050483;28;20102;-67
2023/01/28 12:55:19;;;;;;;11.32;9.52;;;;;;;;;;5052440;28;20052;-67
2023/01/28 12:57:47;;;;;;;15.18;10.02;;;;;;;;;;5045983;28;20144;-67
2023/01/28 13:00:32;;;;;;;16.63;11.63;;;;;;;;;;5038888;28;20140;-67
2023/01/28 13:03:17;;;;;;;20.88;17.95;;;;;;;;;;5033475;28;20561;-67
2023/01/28 13:05:52;;;;;;;14.75;11.85;;;;;;;;;;5039415;28;20405;-68
2023/01/28 13:08:22;;;;;;;19.55;13.55;;;;;;;;;;5045517;28;20714;-67
2023/01/28 13:10:49;;;;;;;11.23;8.77;;;;;;;;;;5051990;28;20135;-68
2023/01/28 13:13:15;;;;;;;20.10;17.52;;;;;;;;;;5051818;28;20063;-68
2023/01/28 13:15:42;;;;;;;19.65;15.20;;;;;;;;;;5051754;28;20463;-68
2023/01/28 13:18:29;;;;;;;25.48;20.48;;;;;;;;;;5052147;28;20041;-66
2023/01/28 13:20:55;;;;;;;29.15;21.60;;;;;;;;;;5050556;28;20052;-67
2023/01/28 13:23:35;;;;;;;16.55;14.32;;;;;;;;;;5051879;28;20052;-67
2023/01/28 13:26:25;;;;;;;16.05;10.48;;;;;;;;;;5037455;28;20045;-67
2023/01/28 13:28:52;;;;;;;13.73;12.27;;;;;;;;;;5040988;28;20078;-67
2023/01/28 13:31:21;;;;;;;18.40;13.30;;;;;;;;;;5033105;28;20363;-67
2023/01/28 13:33:59;;;;;;;12.60;10.90;;;;;;;;;;5049819;28;20477;-67
2023/01/28 13:36:30;;;;;;;12.73;10.32;;;;;;;;;;5049636;28;20045;-67
2023/01/28 13:38:59;;;;;;;21.52;17.35;;;;;;;;;;5049832;28;20129;-67
2023/01/28 13:41:36;;;;;;;13.55;10.27;;;;;;;;;;5049432;28;20548;-67
2023/01/28 13:44:02;;;;;;;10.20;8.15;;;;;;;;;;5050200;28;20446;-67
2023/01/28 13:46:29;;;;;;;11.05;9.20;;;;;;;;;;5050180;28;20052;-67
2023/01/28 13:48:57;;;;;;;11.38;8.00;;;;;;;;;;5051735;28;20411;-67
2023/01/28 13:51:24;;;;;;;;;;;;;;;;;;5051963;28;20059;-67
2023/01/28 13:53:54;;;;;;;14.20;6.90;;;;;;;;;;5051526;28;20022;-67
2023/01/28 13:56:22;;;;;;;9.68;6.68;;;;;;;;;;5051715;28;20048;-67
2023/01/28 13:59:00;;;;;;;9.50;6.10;;;;;;;;;;5051556;28;20052;-67
2023/01/28 14:02:02;;;;;;;15.32;9.57;;;;;;;;;;5052544;28;20503;-67
2023/01/28 14:04:34;;;;;;;12.68;8.63;;;;;;;;;;5053146;28;20057;-67
2023/01/28 14:07:21;;;;;;;10.38;8.15;;;;;;;;;;5053635;28;20136;-67
2023/01/28 14:09:53;;;;;;;9.73;6.95;;;;;;;;;;5055297;28;20045;-68
2023/01/28 14:12:28;;;;;;;11.77;8.13;;;;;;;;;;5055271;28;20056;-66
2023/01/28 14:15:14;;;;;;;14.15;11.48;;;;;;;;;;5055291;28;20060;-66
2023/01/28 14:17:42;;;;;;;19.60;15.85;;;;;;;;;;5055195;28;20050;-66
2023/01/28 14:20:15;;;;;;;34.95;25.85;;;;;;;;;;5054903;28;20049;-66
2023/01/28 14:22:42;;;;;;;43.35;30.27;;;;;;;;;;5044883;28;20127;-66
2023/01/28 14:25:14;;;;;;;32.30;22.63;;;;;;;;;;5045739;28;20048;-66
2023/01/28 14:27:43;;;;;;;23.52;17.00;;;;;;;;;;5055252;28;20286;-66
2023/01/28 14:30:24;;;;;;;32.60;23.80;;;;;;;;;;5055176;28;20515;-66
2023/01/28 14:32:52;;;;;;;29.92;23.95;;;;;;;;;;5054876;28;20560;-67
2023/01/28 14:35:21;;;;;;;16.33;14.52;;;;;;;;;;5054882;28;20053;-67
2023/01/28 14:37:47;;;;;;;22.23;15.98;;;;;;;;;;5054950;28;20049;-67
2023/01/28 14:40:15;;;;;;;18.80;13.48;;;;;;;;;;5054752;28;20134;-66
2023/01/28 14:42:46;;;;;;;16.83;12.60;;;;;;;;;;5055011;28;20551;-66
2023/01/28 14:45:35;;;;;;;15.90;13.10;;;;;;;;;;5039046;28;20061;-66
2023/01/28 14:48:14;;;;;;;21.00;14.30;;;;;;;;;;5037621;28;20076;-67
2023/01/28 14:50:46;;;;;;;12.80;9.40;;;;;;;;;;5041425;28;20056;-66
2023/01/28 14:53:25;;;;;;;15.93;12.88;;;;;;;;;;5033577;28;20088;-67
2023/01/28 14:56:07;;;;;;;21.15;15.57;;;;;;;;;;5040239;28;20499;-66
2023/01/28 14:58:45;;;;;;;13.35;9.80;;;;;;;;;;5050017;28;20128;-67
2023/01/28 15:01:28;;;;;;;9.13;8.07;;;;;;;;;;5034188;28;20458;-68
2023/01/28 15:03:55;;;;;;;12.18;9.80;;;;;;;;;;5034218;28;20057;-67
2023/01/28 15:06:28;;;;;;;12.57;9.55;;;;;;;;;;5032673;28;20132;-67